Hlavní strana
METAR-TAF:

METAR-TAF

Letiště :

Liepāja, Lotyšsko

zeměpisná šířka: 56-31N, zeměpisná délka: 021-05E, výška: 5 m

Aktuální stav počasí

Zpráva byla vytvořena před 24 minutami, v 04:50 UTC
Bezvětří
Teplota 12°C
Vlhkost vzduchu 94%
Tlak 1022 hPa
Viditelnost 10 km a více

METAR: EVLA 220450Z AUTO 00000KT 9999 NCD 12/11 Q1022

Čas: 08:14 (05:14 UTC)

Předpověď počasí

Zpráva byla vytvořena před 3 hodinami a 11 minutami, v 02:03 UTC
Předpověď platná od 22 v 03 UTC do 23 v 03 UTC
vítr z různých směrů 2 kt
Viditelnost 10 km a více
Polojasno ve výšce 3000 ft
Změna
od 22 v 07 UTC do 22 v 09 UTC
Jihozápadní vítr 7 kt
Dočasný
od 22 v 21 UTC do 23 v 03 UTC
Jihojihozápadní vítr 12 kt s nárazy do 25 kt

TAF: EVLA 220203Z 2203/2303 VRB02KT 9999 SCT030 BECMG 2207/2209 23007KT TEMPO 2221/2303 21012G25KT

Stav a předpovědi počasí z více než 4 000 letišť (zprávy METAR a TAF).

Červené a žluté tečky na mapě představují dostupné meteorologické stanice.

Když kurzor umístíte na tečku, zobrazí se název stanice.

Pak kliknutím zobrazíte stav a předpověď počasí.

Chcete-li změnit mapu, kliknutím na zelené tlačítko se znaménkem +mapu přiblížíte, kliknutím na zelené tlačítko se znaménkem – mapu oddálíte a kliknutím na zelené šipky přejdete na sousední mapy.


METAR-TAF: